createdAt,value
2023-05-22T04:15:21.098Z,15.31
2023-05-22T04:16:21.108Z,15.31
2023-05-22T04:17:21.086Z,15.30
2023-05-22T04:18:21.065Z,15.33
2023-05-22T04:19:21.407Z,15.31
2023-05-22T04:20:21.035Z,15.33
2023-05-22T04:21:21.017Z,15.33
2023-05-22T04:22:21.016Z,15.33
2023-05-22T04:23:20.990Z,15.33
2023-05-22T04:24:20.980Z,15.35
2023-05-22T04:25:20.963Z,15.35
2023-05-22T04:26:20.969Z,15.38
2023-05-22T04:27:20.953Z,15.36
2023-05-22T04:28:20.922Z,15.38
2023-05-22T04:29:20.927Z,15.39
2023-05-22T04:30:20.904Z,15.42
2023-05-22T04:31:20.946Z,15.42
2023-05-22T04:32:20.877Z,15.41
2023-05-22T04:33:20.880Z,15.42
2023-05-22T04:34:20.859Z,15.43
2023-05-22T04:35:20.862Z,15.42
2023-05-22T04:36:20.836Z,15.43
2023-05-22T04:37:20.826Z,15.43
2023-05-22T04:38:20.799Z,15.42
2023-05-22T04:39:20.810Z,15.42
2023-05-22T04:40:20.797Z,15.42
2023-05-22T04:41:22.402Z,15.42
2023-05-22T04:42:20.776Z,15.43
2023-05-22T04:43:20.776Z,15.45
2023-05-22T04:44:20.760Z,15.45
2023-05-22T04:45:20.729Z,15.46
2023-05-22T04:46:20.721Z,15.48
2023-05-22T04:47:20.709Z,15.51
2023-05-22T04:48:20.674Z,15.56
2023-05-22T04:49:20.669Z,15.56
2023-05-22T04:50:20.692Z,15.59
2023-05-22T04:51:20.636Z,15.60
2023-05-22T04:52:20.621Z,15.61
2023-05-22T04:53:20.608Z,15.61
2023-05-22T04:54:20.586Z,15.61
2023-05-22T04:55:20.610Z,15.63
2023-05-22T04:56:31.981Z,15.63
2023-05-22T04:57:21.570Z,15.64
2023-05-22T04:58:20.546Z,15.66
2023-05-22T04:59:20.544Z,15.68
2023-05-22T05:00:20.529Z,15.70
2023-05-22T05:01:20.540Z,15.74
2023-05-22T05:02:20.567Z,15.75
2023-05-22T05:03:20.503Z,15.78
2023-05-22T05:04:20.481Z,15.82
2023-05-22T05:05:20.490Z,16.00
2023-05-22T05:06:20.434Z,16.20
2023-05-22T05:07:20.430Z,16.38
2023-05-22T05:08:20.411Z,16.53
2023-05-22T05:09:20.405Z,16.65
2023-05-22T05:10:20.394Z,16.71
2023-05-22T05:11:20.371Z,16.80
2023-05-22T05:12:20.376Z,16.92
2023-05-22T05:13:20.351Z,17.06
2023-05-22T05:14:20.353Z,17.20
2023-05-22T05:15:20.316Z,17.32
2023-05-22T05:16:20.352Z,17.40
2023-05-22T05:17:20.292Z,17.40
2023-05-22T05:18:20.290Z,17.33
2023-05-22T05:19:20.301Z,17.26
2023-05-22T05:20:20.270Z,17.18
2023-05-22T05:21:20.232Z,17.11
2023-05-22T05:22:20.225Z,17.03
2023-05-22T05:23:20.209Z,16.98
2023-05-22T05:24:20.213Z,16.95
2023-05-22T05:25:20.186Z,16.92
2023-05-22T05:26:20.171Z,16.93
2023-05-22T05:27:20.154Z,16.95
2023-05-22T05:28:20.157Z,16.98
2023-05-22T05:29:20.127Z,17.04
2023-05-22T05:30:20.669Z,17.07
2023-05-22T05:31:20.107Z,17.11
2023-05-22T05:32:20.201Z,17.14
2023-05-22T05:33:20.088Z,17.15
2023-05-22T05:34:20.069Z,17.18
2023-05-22T05:35:20.061Z,17.14
2023-05-22T05:36:20.043Z,17.08
2023-05-22T05:37:20.048Z,17.07
2023-05-22T05:38:20.026Z,17.08
2023-05-22T05:39:20.001Z,17.08
2023-05-22T05:40:20.013Z,17.08
2023-05-22T05:41:19.990Z,17.08
2023-05-22T05:42:19.984Z,17.11
2023-05-22T05:43:19.952Z,17.15
2023-05-22T05:44:19.951Z,17.22
2023-05-22T05:45:19.922Z,17.25
2023-05-22T05:46:20.083Z,17.28
2023-05-22T05:47:19.939Z,17.32
2023-05-22T05:48:19.908Z,17.36
2023-05-22T05:49:19.864Z,17.41
2023-05-22T05:50:19.860Z,17.46
2023-05-22T05:51:19.866Z,17.48
2023-05-22T05:52:19.847Z,17.53
2023-05-22T05:53:19.820Z,17.55
2023-05-22T05:54:19.825Z,17.55
2023-05-22T05:55:19.811Z,17.59
2023-05-22T05:56:19.799Z,17.54
2023-05-22T05:57:19.775Z,17.51
2023-05-22T05:58:19.780Z,17.51
2023-05-22T05:59:19.742Z,17.54
2023-05-22T06:00:19.746Z,17.54
2023-05-22T06:01:19.716Z,17.50
2023-05-22T06:02:19.779Z,17.51
2023-05-22T06:03:19.781Z,17.53
2023-05-22T06:04:19.688Z,17.53
2023-05-22T06:05:19.733Z,17.50
2023-05-22T06:06:19.683Z,17.53
2023-05-22T06:07:19.643Z,17.57
2023-05-22T06:08:19.631Z,17.63
2023-05-22T06:09:19.623Z,17.67
2023-05-22T06:10:19.626Z,17.70
2023-05-22T06:11:19.598Z,17.76
2023-05-22T06:12:19.582Z,17.79
2023-05-22T06:13:19.568Z,17.85
2023-05-22T06:14:19.594Z,17.87
2023-05-22T06:15:19.548Z,17.89
2023-05-22T06:16:19.560Z,18.00
2023-05-22T06:17:19.505Z,18.06
2023-05-22T06:18:19.507Z,18.12
2023-05-22T06:19:19.540Z,18.15
2023-05-22T06:20:19.482Z,18.17
2023-05-22T06:21:19.457Z,18.17
2023-05-22T06:22:19.451Z,18.18
2023-05-22T06:23:19.445Z,18.18
2023-05-22T06:24:19.447Z,18.13
2023-05-22T06:25:19.439Z,18.10
2023-05-22T06:26:19.392Z,18.10
2023-05-22T06:27:19.380Z,18.13
2023-05-22T06:28:19.392Z,18.17
2023-05-22T06:29:19.353Z,18.27
2023-05-22T06:30:31.984Z,18.39
2023-05-22T06:31:20.336Z,18.49
2023-05-22T06:32:19.374Z,18.50
2023-05-22T06:33:19.353Z,18.55
2023-05-22T06:34:19.379Z,18.61
2023-05-22T06:35:19.281Z,18.65
2023-05-22T06:36:19.266Z,18.73
2023-05-22T06:37:19.260Z,18.83
2023-05-22T06:38:19.244Z,18.95
2023-05-22T06:39:19.221Z,18.87
2023-05-22T06:40:19.226Z,18.91
2023-05-22T06:41:19.203Z,18.99
2023-05-22T06:42:19.205Z,19.08
2023-05-22T06:43:19.186Z,19.14
2023-05-22T06:44:19.180Z,19.17
2023-05-22T06:45:19.148Z,19.18
2023-05-22T06:46:19.252Z,19.24
2023-05-22T06:47:19.132Z,19.18
2023-05-22T06:48:19.105Z,19.20
2023-05-22T06:49:19.089Z,19.25
2023-05-22T06:50:19.076Z,19.32
2023-05-22T06:51:19.079Z,19.38
2023-05-22T06:52:19.116Z,19.47
2023-05-22T06:53:19.053Z,19.51
2023-05-22T06:54:19.037Z,19.61
2023-05-22T06:55:19.045Z,19.54
2023-05-22T06:56:19.021Z,19.61
2023-05-22T06:57:19.005Z,19.79
2023-05-22T06:58:18.994Z,20.02
2023-05-22T06:59:18.975Z,20.15
2023-05-22T07:00:21.559Z,20.13
2023-05-22T07:01:18.999Z,20.12
2023-05-22T07:02:18.938Z,20.16
2023-05-22T07:03:18.924Z,20.38
2023-05-22T07:04:18.916Z,20.62
2023-05-22T07:05:19.005Z,20.81
2023-05-22T07:06:18.977Z,20.83
2023-05-22T07:07:18.888Z,20.95
2023-05-22T07:08:18.854Z,21.08
2023-05-22T07:09:18.838Z,21.04
2023-05-22T07:10:18.847Z,20.99
2023-05-22T07:11:18.857Z,21.02
2023-05-22T07:12:18.803Z,21.17
2023-05-22T07:13:18.796Z,20.95
2023-05-22T07:14:18.780Z,20.93
2023-05-22T07:15:18.777Z,20.96
2023-05-22T07:16:18.762Z,21.01
2023-05-22T07:17:18.745Z,21.17
2023-05-22T07:18:18.725Z,21.39
2023-05-22T07:19:18.737Z,21.67
2023-05-22T07:20:18.750Z,21.83
2023-05-22T07:21:18.679Z,21.94
2023-05-22T07:22:18.702Z,21.98
2023-05-22T07:23:18.664Z,22.12
2023-05-22T07:24:18.664Z,22.23
2023-05-22T07:25:18.644Z,22.14
2023-05-22T07:26:18.622Z,21.95
2023-05-22T07:27:25.687Z,21.76
2023-05-22T07:28:18.606Z,21.83
2023-05-22T07:29:18.612Z,21.91
2023-05-22T07:30:18.570Z,21.95
2023-05-22T07:31:18.607Z,22.06
2023-05-22T07:32:18.579Z,21.92
2023-05-22T07:33:18.543Z,21.92
2023-05-22T07:34:18.518Z,21.97
2023-05-22T07:35:18.542Z,22.04
2023-05-22T07:36:18.493Z,21.88
2023-05-22T07:37:18.507Z,21.72
2023-05-22T07:38:18.471Z,21.67
2023-05-22T07:39:18.476Z,21.69
2023-05-22T07:40:18.437Z,21.67
2023-05-22T07:41:18.440Z,21.75
2023-05-22T07:42:18.442Z,21.78
2023-05-22T07:43:18.416Z,21.91
2023-05-22T07:44:18.399Z,21.99
2023-05-22T07:45:18.383Z,22.07
2023-05-22T07:46:18.448Z,22.14
2023-05-22T07:47:18.351Z,22.14
2023-05-22T07:48:18.412Z,22.07
2023-05-22T07:49:18.334Z,21.95
2023-05-22T07:50:18.308Z,21.72
2023-05-22T07:51:18.301Z,21.72
2023-05-22T07:52:18.308Z,21.75
2023-05-22T07:53:18.279Z,21.81
2023-05-22T07:54:18.264Z,21.64
2023-05-22T07:55:18.256Z,21.63
2023-05-22T07:56:18.222Z,21.67
2023-05-22T07:57:18.215Z,21.71
2023-05-22T07:58:18.206Z,21.54
2023-05-22T07:59:18.194Z,21.50
2023-05-22T08:00:18.179Z,21.57
2023-05-22T08:01:18.169Z,21.61
2023-05-22T08:02:18.173Z,21.64
2023-05-22T08:03:18.327Z,21.61
2023-05-22T08:04:18.381Z,21.64
2023-05-22T08:05:18.214Z,21.63
2023-05-22T08:06:18.124Z,21.54
2023-05-22T08:07:18.112Z,21.50
2023-05-22T08:08:18.074Z,21.51
2023-05-22T08:09:18.065Z,21.48
2023-05-22T08:10:18.044Z,21.48
2023-05-22T08:11:18.040Z,21.48
2023-05-22T08:12:18.023Z,21.51
2023-05-22T08:13:18.012Z,21.51
2023-05-22T08:14:17.993Z,21.56
2023-05-22T08:15:17.982Z,21.59
2023-05-22T08:16:17.962Z,21.69
2023-05-22T08:17:18.010Z,21.81
2023-05-22T08:18:17.943Z,21.90
2023-05-22T08:19:17.986Z,21.98
2023-05-22T08:20:17.960Z,22.12
2023-05-22T08:21:17.925Z,22.27
2023-05-22T08:22:17.898Z,22.41
2023-05-22T08:23:17.905Z,22.57
2023-05-22T08:24:17.868Z,22.53
2023-05-22T08:25:17.868Z,22.49
2023-05-22T08:26:17.844Z,22.50
2023-05-22T08:27:17.829Z,22.39
2023-05-22T08:28:17.811Z,22.27
2023-05-22T08:29:17.807Z,22.28
2023-05-22T08:30:17.800Z,22.23
2023-05-22T08:31:17.827Z,22.20
2023-05-22T08:32:17.767Z,22.28
2023-05-22T08:33:17.813Z,22.35
2023-05-22T08:34:17.735Z,22.39
2023-05-22T08:35:17.746Z,22.50
2023-05-22T08:36:17.725Z,22.62
2023-05-22T08:37:17.698Z,22.72
2023-05-22T08:38:17.684Z,22.82
2023-05-22T08:39:17.682Z,22.86
2023-05-22T08:40:17.669Z,22.92
2023-05-22T08:41:17.662Z,22.94
2023-05-22T08:42:17.631Z,23.01
2023-05-22T08:43:17.625Z,23.04
2023-05-22T08:44:17.610Z,23.08
2023-05-22T08:45:17.612Z,23.12
2023-05-22T08:46:17.620Z,23.23
2023-05-22T08:47:17.632Z,23.35
2023-05-22T08:48:17.552Z,23.32
2023-05-22T08:49:17.564Z,23.27
2023-05-22T08:50:17.547Z,23.29
2023-05-22T08:51:17.519Z,23.26
2023-05-22T08:52:17.503Z,23.20
2023-05-22T08:53:17.506Z,23.20
2023-05-22T08:54:17.489Z,23.08
2023-05-22T08:55:17.479Z,23.02
2023-05-22T08:56:17.468Z,22.97
2023-05-22T08:57:17.445Z,23.04
2023-05-22T08:58:17.424Z,23.11
2023-05-22T08:59:17.456Z,23.26
2023-05-22T09:00:17.409Z,23.42
2023-05-22T09:01:17.415Z,23.47
2023-05-22T09:02:17.377Z,23.39
2023-05-22T09:03:17.438Z,23.29
2023-05-22T09:04:17.371Z,23.38
2023-05-22T09:05:17.380Z,23.50
2023-05-22T09:06:17.367Z,23.58
2023-05-22T09:07:17.351Z,23.57
2023-05-22T09:08:20.924Z,23.53
2023-05-22T09:09:17.336Z,23.61
2023-05-22T09:10:17.280Z,23.61
2023-05-22T09:11:17.284Z,23.67
2023-05-22T09:12:17.253Z,23.76
2023-05-22T09:13:17.259Z,23.87
2023-05-22T09:14:17.230Z,23.95
2023-05-22T09:15:17.226Z,23.86
2023-05-22T09:16:17.265Z,23.83
2023-05-22T09:17:17.355Z,23.80
2023-05-22T09:18:17.194Z,23.65
2023-05-22T09:19:17.219Z,23.60
2023-05-22T09:20:17.151Z,23.61
2023-05-22T09:21:28.842Z,23.67
2023-05-22T09:22:18.136Z,23.58
2023-05-22T09:23:17.132Z,23.53
2023-05-22T09:24:17.111Z,23.55
2023-05-22T09:25:17.093Z,23.62
2023-05-22T09:26:17.081Z,23.61
2023-05-22T09:27:17.075Z,23.82
2023-05-22T09:28:17.065Z,23.92
2023-05-22T09:29:17.050Z,24.04
2023-05-22T09:30:17.030Z,24.12
2023-05-22T09:31:17.026Z,24.12
2023-05-22T09:32:17.000Z,24.14
2023-05-22T09:33:17.010Z,24.24
2023-05-22T09:34:16.977Z,24.37
2023-05-22T09:35:16.953Z,24.47
2023-05-22T09:36:16.953Z,24.59
2023-05-22T09:37:16.941Z,24.75
2023-05-22T09:38:16.953Z,24.83
2023-05-22T09:39:16.914Z,24.94
2023-05-22T09:40:16.903Z,25.15
2023-05-22T09:41:16.892Z,25.31
2023-05-22T09:42:16.888Z,25.35
2023-05-22T09:43:16.856Z,25.35
2023-05-22T09:44:16.851Z,25.38
2023-05-22T09:45:16.819Z,25.27
2023-05-22T09:46:16.872Z,25.19
2023-05-22T09:47:16.853Z,25.13
2023-05-22T09:48:16.801Z,25.09
2023-05-22T09:49:17.502Z,25.05
2023-05-22T09:50:16.795Z,25.00
2023-05-22T09:51:16.764Z,25.01
2023-05-22T09:52:16.743Z,25.12
2023-05-22T09:53:16.721Z,25.25
2023-05-22T09:54:16.713Z,25.28
2023-05-22T09:55:16.709Z,25.16
2023-05-22T09:56:23.981Z,25.24
2023-05-22T09:57:17.676Z,25.44
2023-05-22T09:58:16.657Z,25.68
2023-05-22T09:59:16.647Z,25.72
2023-05-22T10:00:16.655Z,25.71
2023-05-22T10:01:16.657Z,25.49
2023-05-22T10:02:16.608Z,25.56
2023-05-22T10:03:16.588Z,25.67
2023-05-22T10:04:16.619Z,25.84
2023-05-22T10:05:16.586Z,26.01
2023-05-22T10:06:16.590Z,26.29
2023-05-22T10:07:16.539Z,26.28
2023-05-22T10:08:16.530Z,25.93
2023-05-22T10:09:19.080Z,25.91
2023-05-22T10:10:16.509Z,26.05
2023-05-22T10:11:16.488Z,26.21
2023-05-22T10:12:16.493Z,26.46
2023-05-22T10:13:16.461Z,26.72
2023-05-22T10:14:16.471Z,26.89
2023-05-22T10:15:16.437Z,26.91
2023-05-22T10:16:16.443Z,26.89
2023-05-22T10:17:16.409Z,26.72
2023-05-22T10:18:16.414Z,26.36
2023-05-22T10:19:16.439Z,25.91
2023-05-22T10:20:16.396Z,25.87
2023-05-22T10:21:16.367Z,25.99
2023-05-22T10:22:16.367Z,26.28
2023-05-22T10:23:16.584Z,26.37
2023-05-22T10:24:16.360Z,26.44
2023-05-22T10:25:16.312Z,26.50
2023-05-22T10:26:16.315Z,26.40
2023-05-22T10:27:16.291Z,26.22
2023-05-22T10:28:16.304Z,26.08
2023-05-22T10:29:16.267Z,26.24
2023-05-22T10:30:16.262Z,26.54
2023-05-22T10:31:16.279Z,26.91
2023-05-22T10:32:16.246Z,27.13
2023-05-22T10:33:16.379Z,27.31
2023-05-22T10:34:16.212Z,27.36
2023-05-22T10:35:16.190Z,27.57
2023-05-22T10:36:16.214Z,27.58
2023-05-22T10:37:19.037Z,27.51
2023-05-22T10:38:16.156Z,27.38
2023-05-22T10:39:16.143Z,27.31
2023-05-22T10:40:16.134Z,27.02
2023-05-22T10:41:16.121Z,26.86
2023-05-22T10:42:16.107Z,26.92
2023-05-22T10:43:16.106Z,26.95
2023-05-22T10:44:16.072Z,26.80
2023-05-22T10:45:16.066Z,26.68
2023-05-22T10:46:16.077Z,26.40
2023-05-22T10:47:16.048Z,26.17
2023-05-22T10:48:16.026Z,26.08
2023-05-22T10:49:16.006Z,25.84
2023-05-22T10:50:16.035Z,26.06
2023-05-22T10:51:16.004Z,26.52
2023-05-22T10:52:15.970Z,26.91
2023-05-22T10:53:15.965Z,27.09
2023-05-22T10:54:15.959Z,26.95
2023-05-22T10:55:16.085Z,26.89
2023-05-22T10:56:15.927Z,26.80
2023-05-22T10:57:15.909Z,26.95
2023-05-22T10:58:15.896Z,27.11
2023-05-22T10:59:15.888Z,27.39
2023-05-22T11:00:15.924Z,27.76
2023-05-22T11:01:16.005Z,27.92
2023-05-22T11:02:15.886Z,27.95
2023-05-22T11:03:18.304Z,27.70
2023-05-22T11:04:16.082Z,27.43
2023-05-22T11:05:15.851Z,27.23
2023-05-22T11:06:15.809Z,27.14
2023-05-22T11:07:15.797Z,26.95
2023-05-22T11:08:16.761Z,26.72
2023-05-22T11:09:15.762Z,26.55
2023-05-22T11:10:15.760Z,26.42
2023-05-22T11:11:15.739Z,26.31
2023-05-22T11:12:15.732Z,26.17
2023-05-22T11:13:15.739Z,26.06
2023-05-22T11:14:15.713Z,26.06
2023-05-22T11:15:15.693Z,26.18
2023-05-22T11:16:15.664Z,26.49
2023-05-22T11:17:15.697Z,26.61
2023-05-22T11:18:15.693Z,26.57
2023-05-22T11:19:23.441Z,26.44
2023-05-22T11:20:16.648Z,26.42
2023-05-22T11:21:15.610Z,26.40
2023-05-22T11:22:15.593Z,26.37
2023-05-22T11:23:15.583Z,26.36
2023-05-22T11:24:15.577Z,26.40
2023-05-22T11:25:15.564Z,26.46
2023-05-22T11:26:15.544Z,26.31
2023-05-22T11:27:15.540Z,26.09
2023-05-22T11:28:15.511Z,25.69
2023-05-22T11:29:15.520Z,25.57
2023-05-22T11:30:15.499Z,25.64
2023-05-22T11:31:15.528Z,25.53
2023-05-22T11:32:15.481Z,25.64
2023-05-22T11:33:15.498Z,26.11
2023-05-22T11:34:15.454Z,26.57
2023-05-22T11:35:15.434Z,26.74
2023-05-22T11:36:15.450Z,26.83
2023-05-22T11:37:15.416Z,26.91
2023-05-22T11:38:15.415Z,27.19
2023-05-22T11:39:15.400Z,27.50
2023-05-22T11:40:15.472Z,27.73
2023-05-22T11:41:15.375Z,27.76
2023-05-22T11:42:15.345Z,27.91
2023-05-22T11:43:15.358Z,28.17
2023-05-22T11:44:15.319Z,28.31
2023-05-22T11:45:15.310Z,28.31
2023-05-22T11:46:15.358Z,28.17
2023-05-22T11:47:15.284Z,27.88
2023-05-22T11:48:15.886Z,27.66
2023-05-22T11:49:16.001Z,27.66
2023-05-22T11:50:22.714Z,27.73
2023-05-22T11:51:16.237Z,27.66
2023-05-22T11:52:15.228Z,27.74
2023-05-22T11:53:15.302Z,27.96
2023-05-22T11:54:15.180Z,27.91
2023-05-22T11:55:15.176Z,28.04
2023-05-22T11:56:15.163Z,28.25
2023-05-22T11:57:15.162Z,28.10
2023-05-22T11:58:15.150Z,28.29
2023-05-22T11:59:15.127Z,28.44
2023-05-22T12:00:15.267Z,28.50
2023-05-22T12:01:15.104Z,28.65
2023-05-22T12:02:15.101Z,28.73
2023-05-22T12:03:15.144Z,28.65
2023-05-22T12:04:15.249Z,28.54
2023-05-22T12:05:15.046Z,28.53
2023-05-22T12:06:17.166Z,28.53
2023-05-22T12:07:15.045Z,28.46
2023-05-22T12:08:15.002Z,28.58
2023-05-22T12:09:15.018Z,28.93
2023-05-22T12:10:14.982Z,28.88
2023-05-22T12:11:14.997Z,28.91
2023-05-22T12:12:15.108Z,29.01
2023-05-22T12:13:14.966Z,29.13
2023-05-22T12:14:14.933Z,29.10
2023-05-22T12:15:14.934Z,29.10
2023-05-22T12:16:14.948Z,29.22
2023-05-22T12:17:14.897Z,29.41
2023-05-22T12:18:14.876Z,29.59
2023-05-22T12:19:14.946Z,29.34
2023-05-22T12:20:14.881Z,29.19
2023-05-22T12:21:14.863Z,29.44
2023-05-22T12:22:14.879Z,29.35
2023-05-22T12:23:14.823Z,29.47
2023-05-22T12:24:14.816Z,29.84
2023-05-22T12:25:14.840Z,29.63
2023-05-22T12:26:14.787Z,29.23
2023-05-22T12:27:14.774Z,29.16
2023-05-22T12:28:14.759Z,29.11
2023-05-22T12:29:14.747Z,29.59
2023-05-22T12:30:14.964Z,29.87
2023-05-22T12:31:14.733Z,29.55
2023-05-22T12:32:14.735Z,29.38
2023-05-22T12:33:14.804Z,29.56
2023-05-22T12:34:14.689Z,29.81
2023-05-22T12:35:14.704Z,29.63
2023-05-22T12:36:14.653Z,29.00
2023-05-22T12:37:14.654Z,28.46
2023-05-22T12:38:14.631Z,28.32
2023-05-22T12:39:14.634Z,28.36
2023-05-22T12:40:14.616Z,28.29
2023-05-22T12:41:14.749Z,28.29
2023-05-22T12:42:14.580Z,28.31
2023-05-22T12:43:14.566Z,28.29
2023-05-22T12:44:14.571Z,28.26
2023-05-22T12:45:14.551Z,28.22
2023-05-22T12:46:14.558Z,28.26
2023-05-22T12:47:14.533Z,28.41
2023-05-22T12:48:14.555Z,28.46
2023-05-22T12:49:14.511Z,28.46
2023-05-22T12:50:14.493Z,28.47
2023-05-22T12:51:14.478Z,28.41
2023-05-22T12:52:14.464Z,28.60
2023-05-22T12:53:14.458Z,29.15
2023-05-22T12:54:14.436Z,29.50
2023-05-22T12:55:14.421Z,30.00
2023-05-22T12:56:14.405Z,30.18
2023-05-22T12:57:14.428Z,30.08
2023-05-22T12:58:14.400Z,30.12
2023-05-22T12:59:14.402Z,30.15
2023-05-22T13:00:14.378Z,30.14
2023-05-22T13:01:14.453Z,30.64
2023-05-22T13:02:14.356Z,31.02
2023-05-22T13:03:14.338Z,31.43
2023-05-22T13:04:14.308Z,31.79
2023-05-22T13:05:14.331Z,32.13
2023-05-22T13:06:14.284Z,32.32
2023-05-22T13:07:14.286Z,32.48
2023-05-22T13:08:14.271Z,32.37
2023-05-22T13:09:14.256Z,32.27
2023-05-22T13:10:14.242Z,32.33
2023-05-22T13:11:14.251Z,32.17
2023-05-22T13:12:14.231Z,32.13
2023-05-22T13:13:14.198Z,31.45
2023-05-22T13:14:14.197Z,30.93
2023-05-22T13:15:14.177Z,31.02
2023-05-22T13:16:14.182Z,31.05
2023-05-22T13:17:14.172Z,31.36
2023-05-22T13:18:14.138Z,31.48
2023-05-22T13:19:14.152Z,31.49
2023-05-22T13:20:14.132Z,31.18
2023-05-22T13:21:14.116Z,30.80
2023-05-22T13:22:14.103Z,30.84
2023-05-22T13:23:14.083Z,31.28
2023-05-22T13:24:14.057Z,31.70
2023-05-22T13:25:15.023Z,32.03
2023-05-22T13:26:14.043Z,32.29
2023-05-22T13:27:14.033Z,32.51
2023-05-22T13:28:14.030Z,32.66
2023-05-22T13:29:13.998Z,32.74
2023-05-22T13:30:14.000Z,32.64
2023-05-22T13:31:13.981Z,32.06
2023-05-22T13:32:13.972Z,31.93
2023-05-22T13:33:13.975Z,32.06
2023-05-22T13:34:13.996Z,31.95
2023-05-22T13:35:13.928Z,32.00
2023-05-22T13:36:13.935Z,32.30
2023-05-22T13:37:13.917Z,32.58
2023-05-22T13:38:13.901Z,32.84
2023-05-22T13:39:13.878Z,32.55
2023-05-22T13:40:13.876Z,32.11
2023-05-22T13:41:13.886Z,31.46
2023-05-22T13:42:13.856Z,31.53
2023-05-22T13:43:13.835Z,30.98
2023-05-22T13:44:13.840Z,30.50
2023-05-22T13:45:13.824Z,30.80
2023-05-22T13:46:13.791Z,31.21
2023-05-22T13:47:13.919Z,31.50
2023-05-22T13:48:13.805Z,31.58
2023-05-22T13:49:13.764Z,31.75
2023-05-22T13:50:13.766Z,31.09
2023-05-22T13:51:13.738Z,29.53
2023-05-22T13:52:13.717Z,29.34
2023-05-22T13:53:13.723Z,29.66
2023-05-22T13:54:13.722Z,29.65
2023-05-22T13:55:13.701Z,29.44
2023-05-22T13:56:13.677Z,29.19
2023-05-22T13:57:13.663Z,29.07
2023-05-22T13:58:13.647Z,29.22
2023-05-22T13:59:13.656Z,29.41
2023-05-22T14:00:13.635Z,29.92
2023-05-22T14:01:13.645Z,30.05
2023-05-22T14:02:13.644Z,29.94
2023-05-22T14:03:13.672Z,29.68
2023-05-22T14:04:13.586Z,29.44
2023-05-22T14:05:13.566Z,29.26
2023-05-22T14:06:13.549Z,29.37
2023-05-22T14:07:13.538Z,29.87
2023-05-22T14:08:13.538Z,30.43
2023-05-22T14:09:13.521Z,31.01
2023-05-22T14:10:13.494Z,31.42
2023-05-22T14:11:13.496Z,31.65
2023-05-22T14:12:13.478Z,31.87
2023-05-22T14:13:13.495Z,31.99
2023-05-22T14:14:13.454Z,32.22
2023-05-22T14:15:13.447Z,32.44
2023-05-22T14:16:13.468Z,32.52
2023-05-22T14:17:13.407Z,32.37
2023-05-22T14:18:13.455Z,32.42
2023-05-22T14:19:13.427Z,31.79
2023-05-22T14:20:13.383Z,31.08
2023-05-22T14:21:13.362Z,30.62
2023-05-22T14:22:13.373Z,30.49
2023-05-22T14:23:13.361Z,30.16
2023-05-22T14:24:13.328Z,29.66
2023-05-22T14:25:13.319Z,29.28
2023-05-22T14:26:14.465Z,29.11
2023-05-22T14:27:13.302Z,29.03
2023-05-22T14:28:13.271Z,29.23
2023-05-22T14:29:13.259Z,29.57
2023-05-22T14:30:13.243Z,30.24
2023-05-22T14:31:13.336Z,30.74
2023-05-22T14:32:13.249Z,31.18
2023-05-22T14:33:13.214Z,31.50
2023-05-22T14:34:13.195Z,31.91
2023-05-22T14:35:13.199Z,32.20
2023-05-22T14:36:13.177Z,32.39
2023-05-22T14:37:13.175Z,32.57
2023-05-22T14:38:13.155Z,32.76
2023-05-22T14:39:13.143Z,32.88
2023-05-22T14:40:13.120Z,32.86
2023-05-22T14:41:13.136Z,32.69
2023-05-22T14:42:13.095Z,32.47
2023-05-22T14:43:13.098Z,32.43
2023-05-22T14:44:13.085Z,32.10
2023-05-22T14:45:13.065Z,31.93
2023-05-22T14:46:13.088Z,32.14
2023-05-22T14:47:13.040Z,32.36
2023-05-22T14:48:13.093Z,32.49
2023-05-22T14:49:13.021Z,32.40
2023-05-22T14:50:18.990Z,32.40
2023-05-22T14:51:14.005Z,32.52
2023-05-22T14:52:12.979Z,32.54
2023-05-22T14:53:12.964Z,32.48
2023-05-22T14:54:15.046Z,32.36
2023-05-22T14:55:12.971Z,32.07
2023-05-22T14:56:12.932Z,31.61
2023-05-22T14:57:12.970Z,31.62
2023-05-22T14:58:12.929Z,31.82
2023-05-22T14:59:12.920Z,32.03
2023-05-22T15:00:12.944Z,32.18
2023-05-22T15:01:12.940Z,31.79
2023-05-22T15:02:12.974Z,31.30
2023-05-22T15:03:12.941Z,30.67
2023-05-22T15:04:12.849Z,30.15
2023-05-22T15:05:12.888Z,30.02
2023-05-22T15:06:12.812Z,29.90
2023-05-22T15:07:12.803Z,30.29
2023-05-22T15:08:12.785Z,30.87
2023-05-22T15:09:12.783Z,31.21
2023-05-22T15:10:12.766Z,31.49
2023-05-22T15:11:12.766Z,31.33
2023-05-22T15:12:12.735Z,30.94
2023-05-22T15:13:12.780Z,30.99
2023-05-22T15:14:12.727Z,30.90
2023-05-22T15:15:12.715Z,31.11
2023-05-22T15:16:12.756Z,31.42
2023-05-22T15:17:12.678Z,31.18
2023-05-22T15:18:12.678Z,31.26
2023-05-22T15:19:12.703Z,30.89
2023-05-22T15:20:12.644Z,30.81
2023-05-22T15:21:12.655Z,30.99
2023-05-22T15:22:19.477Z,31.26
2023-05-22T15:23:13.617Z,31.33
2023-05-22T15:24:12.601Z,31.38
2023-05-22T15:25:12.599Z,31.40
2023-05-22T15:26:12.556Z,31.42
2023-05-22T15:27:12.557Z,31.65
2023-05-22T15:28:12.550Z,31.67
2023-05-22T15:29:12.526Z,31.57
2023-05-22T15:30:12.687Z,31.70
2023-05-22T15:31:12.504Z,31.77
2023-05-22T15:32:12.535Z,31.65
2023-05-22T15:33:12.506Z,31.31
2023-05-22T15:34:12.462Z,31.26
2023-05-22T15:35:12.462Z,31.35
2023-05-22T15:36:12.438Z,31.09
2023-05-22T15:37:12.447Z,30.67
2023-05-22T15:38:12.530Z,30.40
2023-05-22T15:39:12.409Z,30.40
2023-05-22T15:40:12.409Z,30.62
2023-05-22T15:41:12.385Z,30.62
2023-05-22T15:42:12.380Z,30.14
2023-05-22T15:43:12.366Z,29.63
2023-05-22T15:44:12.342Z,29.28
2023-05-22T15:45:12.350Z,29.19
2023-05-22T15:46:12.363Z,28.81
2023-05-22T15:47:12.326Z,28.48
2023-05-22T15:48:12.316Z,28.13
2023-05-22T15:49:12.313Z,27.91
2023-05-22T15:50:12.272Z,27.85
2023-05-22T15:51:12.261Z,27.71
2023-05-22T15:52:12.255Z,27.62
2023-05-22T15:53:12.240Z,27.67
2023-05-22T15:54:12.217Z,27.58
2023-05-22T15:55:12.212Z,27.46
2023-05-22T15:56:12.208Z,27.46
2023-05-22T15:57:12.188Z,27.54
2023-05-22T15:58:12.167Z,27.59
2023-05-22T15:59:12.158Z,27.73
2023-05-22T16:00:12.138Z,28.09
2023-05-22T16:01:12.238Z,28.22
2023-05-22T16:02:12.175Z,28.03
2023-05-22T16:03:12.258Z,27.71
2023-05-22T16:04:12.090Z,27.28
2023-05-22T16:05:12.077Z,27.04
2023-05-22T16:06:12.075Z,27.09
2023-05-22T16:07:12.065Z,27.01
2023-05-22T16:08:12.040Z,26.92
2023-05-22T16:09:12.072Z,26.83
2023-05-22T16:10:12.033Z,26.74
2023-05-22T16:11:12.019Z,26.67
2023-05-22T16:12:11.992Z,26.58
2023-05-22T16:13:12.002Z,26.39
2023-05-22T16:14:11.973Z,26.28
2023-05-22T16:15:11.965Z,26.06
2023-05-22T16:16:11.943Z,25.93
2023-05-22T16:17:11.937Z,25.89
2023-05-22T16:18:11.915Z,25.80
2023-05-22T16:19:11.965Z,25.74
2023-05-22T16:20:11.898Z,25.69
2023-05-22T16:21:11.871Z,25.54
2023-05-22T16:22:11.860Z,25.43
2023-05-22T16:23:11.851Z,25.42
2023-05-22T16:24:11.861Z,25.42
2023-05-22T16:25:11.853Z,25.39
2023-05-22T16:26:11.815Z,25.44
2023-05-22T16:27:11.825Z,25.43
2023-05-22T16:28:11.800Z,25.39
2023-05-22T16:29:11.798Z,25.37
2023-05-22T16:30:11.766Z,25.38
2023-05-22T16:31:11.778Z,25.37
2023-05-22T16:32:11.737Z,25.34
2023-05-22T16:33:11.759Z,25.34
2023-05-22T16:34:11.724Z,25.32
2023-05-22T16:35:11.699Z,25.20
2023-05-22T16:36:11.696Z,25.15
2023-05-22T16:37:11.676Z,25.06
2023-05-22T16:38:11.681Z,25.01
2023-05-22T16:39:11.657Z,24.95
2023-05-22T16:40:11.649Z,24.91
2023-05-22T16:41:11.636Z,24.90
2023-05-22T16:42:11.616Z,24.83
2023-05-22T16:43:11.611Z,24.67
2023-05-22T16:44:11.589Z,24.27
2023-05-22T16:45:11.563Z,24.08
2023-05-22T16:46:11.636Z,23.95
2023-05-22T16:47:11.585Z,23.89
2023-05-22T16:48:11.596Z,23.77
2023-05-22T16:49:11.522Z,23.49
2023-05-22T16:50:11.517Z,23.20
2023-05-22T16:51:11.489Z,22.86
2023-05-22T16:52:11.538Z,22.54
2023-05-22T16:53:11.528Z,22.16
2023-05-22T16:54:11.475Z,21.92
2023-05-22T16:55:11.448Z,21.67
2023-05-22T16:56:11.433Z,21.54
2023-05-22T16:57:11.447Z,21.45
2023-05-22T16:58:11.525Z,21.42
2023-05-22T16:59:11.392Z,21.23
2023-05-22T17:00:11.391Z,21.19
2023-05-22T17:01:11.411Z,21.09
2023-05-22T17:02:11.373Z,21.08
2023-05-22T17:03:11.418Z,20.98
2023-05-22T17:04:11.420Z,20.93
2023-05-22T17:05:11.313Z,20.86
2023-05-22T17:06:11.318Z,20.83
2023-05-22T17:07:11.304Z,20.80